New Lebanon, Ohio
Current Conditions -  °F | °C
As of 5:53 PM on Tuesday 25 Nov 2014 (Local Time) from KMGY Reporting Station
Overcast Overcast  
Wind Chill: 30°   Ceiling: 3400
Heat Index: 36°   Visibility: 10mi
Dew Point: 27°   Wind: 8mph
Humidity: 70%   Direction: 310°NW
Pressure: 30.13"   Gusts: NA
Location:  39.75°N, 84.38°W
Report Text: KMGY 252253Z AUTO 31007KT 10SM OVC034 02/M03 A3013 RMK AO2 SLP212 T00221028
Loading
Personal Weather Stations






























Interactive Weather Map New forecast layout! Learn more

10-Day Weather Forecast

Advertisements
Track Severe Weather on mobile